Bay Area Logo

Alameda, CA Condo Real Estate Listings

44 Total Real Estate Listings * Click on table heading to sort
Date Posted Property Type Style Address Price Living Area Lot Size Price/Sq Ft.
2018-11-12 Condo 1071 Mangrove Lane Alameda, CA 94502 $725,000 1,312 sq. ft. 1,742 sq. ft. $553
2018-11-12 Condo Contemporary 301 Broadway Alameda, CA 94501 $595,000 932 sq. ft. 42,689 sq. ft. $638
2018-11-09 Condo Contemporary 2101 Shoreline Dr Alameda, CA 94501 $650,000 1,015 sq. ft. 247,421 sq. ft. $640
2018-11-09 Condo 325 Kitty Hawk Rd Alameda, CA 94501 $549,000 854 sq. ft. 43,560 sq. ft. $643
2018-11-08 Condo 3023 Flora Vista Alameda, CA 94502 $668,000 1,280 sq. ft. 1,307 sq. ft. $522
2018-11-08 Condo Contemporary 325 Kitty Hawk Rd Alameda, CA 94501 $525,000 854 sq. ft. 43,560 sq. ft. $615
2018-11-07 Condo 2137 Otis Dr Alameda, CA 94501 $588,900 1,056 sq. ft. 73,181 sq. ft. $558
2018-11-06 Condo Contemporary 950 Shorepoint Ct Alameda, CA 94501 $540,000 951 sq. ft. 133,729 sq. ft. $568
2018-11-02 Condo Contemporary 2737 5th St Alameda, CA 94501 $995,000 1,987 sq. ft. $501
2018-11-02 Condo Contemporary 311 Centre Ct Alameda, CA 94502 $834,300 1,720 sq. ft. 20,473 sq. ft. $485
2018-11-01 Condo Contemporary 501 Tideway Drive Alameda, CA 94501 $1,595,000 3,034 sq. ft. 2,178 sq. ft. $526
2018-11-01 Condo Contemporary 2063 Whitehall Pl Alameda, CA 94501 $749,000 1,550 sq. ft. 36,590 sq. ft. $483
2018-10-30 Condo Contemporary 420 Cola Ballena Alameda, CA 94501 $888,000 2,139 sq. ft. 100,188 sq. ft. $415
2018-10-29 Condo Contemporary 465 Centre Ct Alameda, CA 94502 $649,000 1,664 sq. ft. 53,143 sq. ft. $390
2018-10-27 Condo Brown Shingle 2702 Sea View Pkwy Alameda, CA 94502 $1,400,000 2,424 sq. ft. $578
2018-10-25 Condo Contemporary 1222 Porta Ballena Alameda, CA 94501 $920,000 1,732 sq. ft. 146,362 sq. ft. $531
2018-10-19 Condo Contemporary 1001 Shoreline Dr Alameda, CA 94501 $595,000 1,360 sq. ft. 39,204 sq. ft. $438
2018-10-13 Condo 1075 Jost Ln Alameda, CA 94502 $688,000 1,334 sq. ft. 1,742 sq. ft. $516
2018-10-05 Condo Contemporary 2101 Shoreline Dr Alameda, CA 94501 $600,000 1,090 sq. ft. 247,421 sq. ft. $550
2018-10-04 Condo Contemporary 491 Diller St Alameda, CA 94501 $1,075,000 2,303 sq. ft. $467
2018-10-04 Condo Contemporary 325 Kitty Hawk Rd Alameda, CA 94501 $549,000 944 sq. ft. 43,560 sq. ft. $582
2018-09-25 Condo 965 Shorepoint Court Alameda, CA 94501 $300,000 733 sq. ft. 101,059 sq. ft. $409
2018-09-24 Condo Contemporary 1051 Mangrove Lane Alameda, CA 94502 $748,000 1,664 sq. ft. 1,742 sq. ft. $450
2018-09-20 Condo 933 Shoreline Dr Alameda, CA 94501 $625,000 1,360 sq. ft. 39,640 sq. ft. $460
2018-09-20 Condo 325 Kitty Hawk Rd Alameda, CA 94501 $469,000 771 sq. ft. 43,560 sq. ft. $608
2018-09-15 Condo Contemporary 1027 Tahiti Alameda, CA 04502 $695,000 1,261 sq. ft. 1,742 sq. ft. $551
2018-09-13 Condo Contemporary 325 Kitty Hawk Road Unit 208 Alameda, CA 94501 $459,000 771 sq. ft. 43,560 sq. ft. $595
2018-09-07 Condo Contemporary 960 Shorepoint Ct Alameda, CA 94501 $549,000 926 sq. ft. 133,729 sq. ft. $593
2018-08-24 Condo Contemporary 339 Broadway Alameda, CA 94501 $549,000 955 sq. ft. 0 sq. ft. $575
2018-08-22 Condo Contemporary 3101 La Campania Alameda, CA 94502 $742,000 1,628 sq. ft. 1,742 sq. ft. $456
2018-08-17 Condo Mid Century Modern 1001 Shoreline Dr Alameda, CA 94501 $725,000 1,360 sq. ft. 39,204 sq. ft. $533
2018-08-13 Condo Contemporary 27 Regulus Court Alameda, CA 94501 $855,000 1,443 sq. ft. 27,007 sq. ft. $593
2018-08-08 Condo Contemporary 590 Kings Road Alameda, CA 94501 $1,095,000 1,977 sq. ft. 403,366 sq. ft. $554
2018-08-07 Condo Contemporary 3450 Capella Ln Alameda, CA 94502 $699,999 1,334 sq. ft. 1,742 sq. ft. $525
2018-08-03 Condo Contemporary 1701 Central Ave Alameda, CA 94501 $599,000 1,204 sq. ft. 21,344 sq. ft. $498
2018-07-12 Condo Contemporary 2035 Otis Dr Alameda, CA 94501 $575,000 894 sq. ft. 138,521 sq. ft. $643
2017-12-21 Condo Victorian 1931 Mulberry St Alameda, CA 94501 $869,990 1,453 sq. ft. 1,307 sq. ft. $599
2017-12-18 Condo Colonial 1916 Willow St Alameda, CA 94501 $899,990 1,476 sq. ft. $610
2017-12-01 Condo Victorian 1929 Mulberry St Alameda, CA 94501 $849,990 1,453 sq. ft. 1,307 sq. ft. $585
2017-06-01 Condo Contemporary 472 Diller Alameda, CA 94501 $962,486 2,072 sq. ft. $465
2017-06-01 Condo Contemporary 466 Diller Alameda, CA 94501 $964,933 2,072 sq. ft. $466
2016-11-18 Condo Contemporary 478 Diller Alameda, CA 94501 $975,000 1,763 sq. ft. $553
2016-11-01 Condo Contemporary 498 Diller Alameda, CA 94501 $994,968 1,936 sq. ft. $514
2016-11-01 Condo Contemporary 492 Diller St Alameda, CA 94501 $977,899 1,936 sq. ft. $505